createdAt,value
2022-10-28T00:00:52.077Z,100.00
2022-10-28T00:03:20.014Z,100.00
2022-10-28T00:05:47.830Z,100.00
2022-10-28T00:08:15.757Z,100.00
2022-10-28T00:10:43.452Z,100.00
2022-10-28T00:13:12.502Z,100.00
2022-10-28T00:15:40.197Z,100.00
2022-10-28T00:18:07.873Z,100.00
2022-10-28T00:20:35.554Z,100.00
2022-10-28T00:23:03.266Z,100.00
2022-10-28T00:25:30.997Z,100.00
2022-10-28T00:27:58.675Z,100.00
2022-10-28T00:30:27.882Z,100.00
2022-10-28T00:32:55.794Z,100.00
2022-10-28T00:35:24.410Z,100.00
2022-10-28T00:37:54.101Z,100.00
2022-10-28T00:40:21.776Z,100.00
2022-10-28T00:42:49.544Z,100.00
2022-10-28T00:45:17.239Z,100.00
2022-10-28T00:47:52.605Z,100.00
2022-10-28T00:50:30.195Z,100.00
2022-10-28T00:53:02.938Z,100.00
2022-10-28T00:55:32.517Z,100.00
2022-10-28T00:58:01.659Z,100.00
2022-10-28T01:00:29.902Z,100.00
2022-10-28T01:02:58.986Z,100.00
2022-10-28T01:05:29.017Z,100.00
2022-10-28T01:08:00.440Z,100.00
2022-10-28T01:10:41.803Z,100.00
2022-10-28T01:13:14.149Z,100.00
2022-10-28T01:15:50.537Z,100.00
2022-10-28T01:18:27.127Z,100.00
2022-10-28T01:21:20.074Z,100.00
2022-10-28T01:24:00.437Z,100.00
2022-10-28T01:26:42.640Z,100.00
2022-10-28T01:29:40.058Z,100.00
2022-10-28T01:32:15.062Z,100.00
2022-10-28T01:34:54.262Z,100.00
2022-10-28T01:37:33.934Z,100.00
2022-10-28T01:40:09.974Z,100.00
2022-10-28T01:42:46.938Z,100.00
2022-10-28T01:45:20.124Z,100.00
2022-10-28T01:47:56.445Z,100.00
2022-10-28T01:50:28.567Z,100.00
2022-10-28T01:52:59.642Z,100.00
2022-10-28T01:55:31.655Z,100.00
2022-10-28T01:58:01.865Z,100.00
2022-10-28T02:00:32.966Z,100.00
2022-10-28T02:03:02.106Z,100.00
2022-10-28T02:05:43.178Z,100.00
2022-10-28T02:08:25.243Z,100.00
2022-10-28T02:11:03.027Z,100.00
2022-10-28T02:13:40.816Z,100.00
2022-10-28T02:16:14.987Z,100.00
2022-10-28T02:18:54.851Z,100.00
2022-10-28T02:21:33.609Z,100.00
2022-10-28T02:24:09.664Z,100.00
2022-10-28T02:26:40.659Z,100.00
2022-10-28T02:29:16.441Z,100.00
2022-10-28T02:31:50.521Z,100.00
2022-10-28T02:34:24.935Z,100.00
2022-10-28T02:36:55.553Z,100.00
2022-10-28T02:39:30.853Z,100.00
2022-10-28T02:42:04.154Z,100.00
2022-10-28T02:44:37.453Z,100.00
2022-10-28T02:47:11.064Z,100.00
2022-10-28T02:49:44.786Z,100.00
2022-10-28T02:52:13.040Z,100.00
2022-10-28T02:54:51.203Z,100.00
2022-10-28T02:57:23.162Z,100.00
2022-10-28T02:59:55.023Z,100.00
2022-10-28T03:02:23.263Z,100.00
2022-10-28T03:04:52.545Z,100.00
2022-10-28T03:07:20.650Z,100.00
2022-10-28T03:09:48.383Z,100.00
2022-10-28T03:12:16.157Z,100.00
2022-10-28T03:14:43.865Z,100.00
2022-10-28T03:17:11.601Z,100.00
2022-10-28T03:19:39.312Z,100.00
2022-10-28T03:22:08.564Z,100.00
2022-10-28T03:24:36.279Z,100.00
2022-10-28T03:27:04.239Z,100.00
2022-10-28T03:29:31.959Z,100.00
2022-10-28T03:31:59.749Z,100.00
2022-10-28T03:34:27.406Z,100.00
2022-10-28T03:36:55.131Z,100.00
2022-10-28T03:39:24.205Z,100.00
2022-10-28T03:41:51.968Z,100.00
2022-10-28T03:44:19.680Z,100.00
2022-10-28T03:46:47.330Z,100.00
2022-10-28T03:49:15.028Z,100.00
2022-10-28T03:51:42.706Z,100.00
2022-10-28T03:54:10.370Z,100.00
2022-10-28T03:56:40.540Z,100.00
2022-10-28T03:59:09.983Z,100.00
2022-10-28T04:01:37.789Z,100.00
2022-10-28T04:04:05.981Z,100.00
2022-10-28T04:06:33.664Z,100.00
2022-10-28T04:09:01.340Z,100.00
2022-10-28T04:11:28.992Z,100.00
2022-10-28T04:13:58.367Z,100.00
2022-10-28T04:16:26.087Z,100.00
2022-10-28T04:18:53.754Z,100.00
2022-10-28T04:21:21.495Z,100.00
2022-10-28T04:23:49.205Z,100.00
2022-10-28T04:26:16.903Z,100.00
2022-10-28T04:28:44.647Z,100.00
2022-10-28T04:31:13.697Z,100.00
2022-10-28T04:33:41.405Z,100.00
2022-10-28T04:36:09.629Z,100.00
2022-10-28T04:38:37.375Z,100.00
2022-10-28T04:41:05.145Z,100.00
2022-10-28T04:43:32.793Z,100.00
2022-10-28T04:46:05.904Z,100.00
2022-10-28T04:48:34.998Z,100.00
2022-10-28T04:51:03.043Z,100.00
2022-10-28T04:53:30.729Z,100.00
2022-10-28T04:55:58.925Z,100.00
2022-10-28T04:58:27.495Z,100.00
2022-10-28T05:00:55.167Z,100.00
2022-10-28T05:03:22.894Z,100.00
2022-10-28T05:05:51.940Z,100.00
2022-10-28T05:08:19.632Z,100.00
2022-10-28T05:10:50.112Z,100.00
2022-10-28T05:13:17.885Z,100.00
2022-10-28T05:15:45.925Z,100.00
2022-10-28T05:18:13.595Z,100.00
2022-10-28T05:20:41.536Z,100.00
2022-10-28T05:23:10.953Z,100.00
2022-10-28T05:25:38.684Z,100.00
2022-10-28T05:28:06.476Z,100.00
2022-10-28T05:30:34.137Z,100.00
2022-10-28T05:33:02.866Z,100.00
2022-10-28T05:35:30.660Z,100.00
2022-10-28T05:37:58.888Z,100.00
2022-10-28T05:40:28.019Z,100.00
2022-10-28T05:42:56.134Z,100.00
2022-10-28T05:45:23.978Z,100.00
2022-10-28T05:47:52.125Z,100.00
2022-10-28T05:50:20.807Z,100.00
2022-10-28T05:52:49.502Z,100.00
2022-10-28T05:55:19.452Z,100.00
2022-10-28T05:57:48.993Z,100.00
2022-10-28T06:00:17.943Z,100.00
2022-10-28T06:02:45.662Z,100.00
2022-10-28T06:05:13.841Z,100.00
2022-10-28T06:07:42.397Z,100.00
2022-10-28T06:10:11.899Z,100.00
2022-10-28T06:12:38.507Z,100.00
2022-10-28T06:15:08.524Z,100.00
2022-10-28T06:17:36.197Z,100.00
2022-10-28T06:20:04.953Z,100.00
2022-10-28T06:22:32.745Z,100.00
2022-10-28T06:25:00.441Z,100.00
2022-10-28T06:27:28.200Z,100.00
2022-10-28T06:29:55.886Z,100.00
2022-10-28T06:32:24.989Z,100.00
2022-10-28T06:34:52.763Z,100.00
2022-10-28T06:37:20.444Z,100.00
2022-10-28T06:39:51.182Z,100.00
2022-10-28T06:42:19.282Z,100.00
2022-10-28T06:44:48.016Z,100.00
2022-10-28T06:47:17.232Z,100.00
2022-10-28T06:49:46.268Z,100.00
2022-10-28T06:52:13.947Z,100.00
2022-10-28T06:54:41.706Z,100.00
2022-10-28T06:57:09.414Z,100.00
2022-10-28T06:59:37.123Z,100.00
2022-10-28T07:02:05.154Z,100.00
2022-10-28T07:04:34.501Z,100.00
2022-10-28T07:07:03.539Z,100.00
2022-10-28T07:09:31.269Z,100.00
2022-10-28T07:12:04.582Z,100.00
2022-10-28T07:14:34.768Z,100.00
2022-10-28T07:17:02.524Z,100.00
2022-10-28T07:19:30.198Z,100.00
2022-10-28T07:21:57.927Z,100.00
2022-10-28T07:26:57.750Z,100.00
2022-10-28T07:29:25.766Z,100.00
2022-10-28T07:31:55.227Z,100.00
2022-10-28T07:34:26.829Z,100.00
2022-10-28T07:36:56.134Z,100.00
2022-10-28T07:39:24.527Z,100.00
2022-10-28T07:41:53.670Z,100.00
2022-10-28T07:44:21.448Z,100.00
2022-10-28T07:46:49.555Z,100.00
2022-10-28T07:49:18.846Z,100.00
2022-10-28T07:51:47.819Z,100.00
2022-10-28T07:54:15.510Z,100.00
2022-10-28T07:56:43.237Z,100.00
2022-10-28T07:59:12.298Z,100.00
2022-10-28T08:01:40.534Z,100.00
2022-10-28T08:04:08.553Z,100.00
2022-10-28T08:06:36.633Z,100.00
2022-10-28T08:09:04.817Z,100.00
2022-10-28T08:11:32.577Z,100.00
2022-10-28T08:14:00.279Z,100.00
2022-10-28T08:16:29.432Z,100.00
2022-10-28T08:18:57.789Z,100.00
2022-10-28T08:21:27.150Z,100.00
2022-10-28T08:23:55.420Z,100.00
2022-10-28T08:26:23.298Z,100.00
2022-10-28T08:28:51.059Z,100.00
2022-10-28T08:31:18.742Z,100.00
2022-10-28T08:33:47.827Z,100.00
2022-10-28T08:36:17.155Z,100.00
2022-10-28T08:38:46.039Z,100.00
2022-10-28T08:41:30.925Z,100.00
2022-10-28T08:44:21.486Z,100.00
2022-10-28T08:46:59.415Z,100.00
2022-10-28T08:49:33.211Z,100.00
2022-10-28T08:52:04.171Z,100.00
2022-10-28T08:54:37.885Z,100.00
2022-10-28T08:57:17.779Z,100.00
2022-10-28T08:59:46.878Z,100.00
2022-10-28T09:02:22.451Z,100.00
2022-10-28T09:04:56.624Z,100.00
2022-10-28T09:07:25.872Z,100.00
2022-10-28T09:09:54.894Z,100.00
2022-10-28T09:12:38.201Z,100.00
2022-10-28T09:15:19.372Z,88.89
2022-10-28T09:17:54.427Z,76.22
2022-10-28T09:20:35.407Z,62.20
2022-10-28T09:23:09.716Z,75.22
2022-10-28T09:25:43.842Z,97.67
2022-10-28T09:28:26.051Z,100.00
2022-10-28T09:31:02.301Z,100.00
2022-10-28T09:33:44.626Z,100.00
2022-10-28T09:36:17.918Z,100.00
2022-10-28T09:38:46.929Z,100.00
2022-10-28T09:41:19.735Z,100.00
2022-10-28T09:43:51.773Z,99.64
2022-10-28T09:46:20.260Z,100.00
2022-10-28T09:48:50.341Z,100.00
2022-10-28T09:51:29.777Z,100.00
2022-10-28T09:53:59.307Z,100.00
2022-10-28T09:56:28.208Z,100.00
2022-10-28T09:58:59.801Z,100.00
2022-10-28T10:01:33.023Z,100.00
2022-10-28T10:04:00.990Z,73.18
2022-10-28T10:06:34.597Z,91.82
2022-10-28T10:09:02.276Z,73.28
2022-10-28T10:11:34.443Z,69.33
2022-10-28T10:14:11.184Z,79.48
2022-10-28T10:16:42.361Z,86.48
2022-10-28T10:19:12.128Z,100.00
2022-10-28T10:21:46.528Z,100.00
2022-10-28T10:24:33.360Z,100.00
2022-10-28T10:27:03.941Z,100.00
2022-10-28T10:29:32.402Z,100.00
2022-10-28T10:32:17.221Z,100.00
2022-10-28T10:34:55.237Z,100.00
2022-10-28T10:37:25.349Z,100.00
2022-10-28T10:40:17.483Z,100.00
2022-10-28T10:42:57.367Z,100.00
2022-10-28T10:45:32.991Z,100.00
2022-10-28T10:48:12.723Z,100.00
2022-10-28T10:50:41.504Z,100.00
2022-10-28T10:53:21.259Z,100.00
2022-10-28T10:55:55.173Z,100.00
2022-10-28T10:58:29.116Z,100.00
2022-10-28T11:01:00.510Z,100.00
2022-10-28T11:03:32.048Z,100.00
2022-10-28T11:08:57.437Z,100.00
2022-10-28T11:11:33.539Z,100.00
2022-10-28T11:14:07.147Z,100.00
2022-10-28T11:16:35.211Z,100.00
2022-10-28T11:19:20.427Z,100.00
2022-10-28T11:21:57.322Z,100.00
2022-10-28T11:24:49.477Z,100.00
2022-10-28T11:27:25.857Z,100.00
2022-10-28T11:29:54.235Z,100.00
2022-10-28T11:32:50.197Z,100.00
2022-10-28T11:35:41.221Z,100.00
2022-10-28T11:38:23.840Z,100.00
2022-10-28T11:41:04.073Z,100.00
2022-10-28T11:43:39.728Z,100.00
2022-10-28T11:46:12.157Z,100.00
2022-10-28T11:49:10.290Z,100.00
2022-10-28T11:51:49.916Z,100.00
2022-10-28T11:54:44.984Z,100.00
2022-10-28T11:57:17.198Z,100.00
2022-10-28T12:00:01.652Z,100.00
2022-10-28T12:02:49.384Z,100.00
2022-10-28T12:05:26.052Z,100.00
2022-10-28T12:08:09.023Z,100.00
2022-10-28T12:10:56.545Z,100.00
2022-10-28T12:13:35.913Z,100.00
2022-10-28T12:16:13.021Z,100.00
2022-10-28T12:18:50.111Z,100.00
2022-10-28T12:21:26.261Z,100.00
2022-10-28T12:23:54.890Z,100.00
2022-10-28T12:26:34.827Z,100.00
2022-10-28T12:29:11.190Z,100.00
2022-10-28T12:31:44.619Z,100.00
2022-10-28T12:34:16.849Z,100.00
2022-10-28T12:36:49.359Z,100.00
2022-10-28T12:39:22.421Z,100.00
2022-10-28T12:41:58.187Z,100.00
2022-10-28T12:44:29.526Z,100.00
2022-10-28T12:47:05.536Z,100.00
2022-10-28T12:49:45.797Z,100.00
2022-10-28T12:52:25.196Z,100.00
2022-10-28T12:54:58.333Z,100.00
2022-10-28T12:57:28.773Z,100.00
2022-10-28T13:00:03.079Z,100.00
2022-10-28T13:02:34.780Z,100.00
2022-10-28T13:05:05.543Z,100.00
2022-10-28T13:08:02.837Z,100.00
2022-10-28T13:10:39.449Z,100.00
2022-10-28T13:13:36.079Z,100.00
2022-10-28T13:16:35.658Z,100.00
2022-10-28T13:19:21.596Z,100.00
2022-10-28T13:22:32.145Z,100.00
2022-10-28T13:25:19.371Z,100.00
2022-10-28T13:27:50.147Z,100.00
2022-10-28T13:30:22.530Z,100.00
2022-10-28T13:33:03.230Z,100.00
2022-10-28T13:35:33.146Z,100.00
2022-10-28T13:38:04.084Z,100.00
2022-10-28T13:41:24.601Z,100.00
2022-10-28T13:44:28.676Z,100.00
2022-10-28T13:47:19.796Z,100.00
2022-10-28T13:50:16.592Z,100.00
2022-10-28T13:52:47.243Z,100.00
2022-10-28T13:55:28.206Z,100.00
2022-10-28T13:58:05.206Z,100.00
2022-10-28T14:00:40.587Z,100.00
2022-10-28T14:03:21.049Z,100.00
2022-10-28T14:05:59.343Z,100.00
2022-10-28T14:08:31.763Z,100.00
2022-10-28T14:11:09.782Z,100.00
2022-10-28T14:13:42.095Z,100.00
2022-10-28T14:16:26.121Z,100.00
2022-10-28T14:18:59.707Z,100.00
2022-10-28T14:21:41.211Z,100.00
2022-10-28T14:24:14.797Z,100.00
2022-10-28T14:27:28.621Z,100.00
2022-10-28T14:30:17.885Z,100.00
2022-10-28T14:33:12.466Z,100.00
2022-10-28T14:35:45.001Z,100.00
2022-10-28T14:38:48.483Z,100.00
2022-10-28T14:41:39.724Z,100.00
2022-10-28T14:44:21.205Z,100.00
2022-10-28T14:47:04.287Z,100.00
2022-10-28T14:49:33.837Z,100.00
2022-10-28T14:52:09.002Z,100.00
2022-10-28T14:54:49.741Z,100.00
2022-10-28T14:57:22.365Z,100.00
2022-10-28T14:59:52.957Z,100.00
2022-10-28T15:02:24.352Z,100.00
2022-10-28T15:05:01.917Z,100.00
2022-10-28T15:07:34.147Z,100.00
2022-10-28T15:10:16.241Z,100.00
2022-10-28T15:12:46.323Z,100.00
2022-10-28T15:15:22.540Z,100.00
2022-10-28T15:17:51.029Z,100.00
2022-10-28T15:20:24.621Z,100.00
2022-10-28T15:22:53.579Z,100.00
2022-10-28T15:25:25.839Z,100.00
2022-10-28T15:27:55.431Z,100.00
2022-10-28T15:30:25.081Z,100.00
2022-10-28T15:32:53.918Z,100.00
2022-10-28T15:35:39.637Z,100.00
2022-10-28T15:38:41.271Z,100.00
2022-10-28T15:41:45.228Z,100.00
2022-10-28T15:44:34.987Z,100.00
2022-10-28T15:47:16.044Z,100.00
2022-10-28T15:49:45.396Z,100.00
2022-10-28T15:52:31.938Z,100.00
2022-10-28T15:55:01.281Z,100.00
2022-10-28T15:57:32.539Z,100.00
2022-10-28T16:00:20.859Z,100.00
2022-10-28T16:02:57.319Z,100.00
2022-10-28T16:06:00.091Z,100.00
2022-10-28T16:08:31.351Z,100.00
2022-10-28T16:11:02.128Z,100.00
2022-10-28T16:13:37.714Z,100.00
2022-10-28T16:16:09.547Z,100.00
2022-10-28T16:18:43.113Z,100.00
2022-10-28T16:21:18.754Z,100.00
2022-10-28T16:23:48.832Z,100.00
2022-10-28T16:26:17.113Z,100.00
2022-10-28T16:28:46.533Z,100.00
2022-10-28T16:31:17.573Z,100.00
2022-10-28T16:33:45.999Z,100.00
2022-10-28T16:36:14.341Z,100.00
2022-10-28T16:38:42.502Z,100.00
2022-10-28T16:41:16.345Z,100.00
2022-10-28T16:43:44.526Z,100.00
2022-10-28T16:46:15.281Z,100.00
2022-10-28T16:48:43.382Z,100.00
2022-10-28T16:51:17.754Z,100.00
2022-10-28T16:53:49.672Z,100.00
2022-10-28T16:56:19.234Z,100.00
2022-10-28T16:58:47.366Z,100.00
2022-10-28T17:01:20.997Z,100.00
2022-10-28T17:03:49.190Z,100.00
2022-10-28T17:06:17.142Z,100.00
2022-10-28T17:11:33.283Z,100.00
2022-10-28T17:14:01.209Z,100.00
2022-10-28T17:16:30.431Z,100.00
2022-10-28T17:18:58.460Z,100.00
2022-10-28T17:21:26.631Z,100.00
2022-10-28T17:23:55.434Z,100.00
2022-10-28T17:26:25.094Z,100.00
2022-10-28T17:28:54.804Z,100.00
2022-10-28T17:31:25.454Z,100.00
2022-10-28T17:33:59.506Z,100.00
2022-10-28T17:36:28.581Z,100.00
2022-10-28T17:38:57.567Z,100.00
2022-10-28T17:41:26.708Z,100.00
2022-10-28T17:43:56.726Z,100.00
2022-10-28T17:46:26.108Z,100.00
2022-10-28T17:48:54.365Z,100.00
2022-10-28T17:51:25.186Z,100.00
2022-10-28T17:53:55.488Z,100.00
2022-10-28T17:56:24.217Z,100.00
2022-10-28T17:58:53.648Z,100.00
2022-10-28T18:01:21.719Z,100.00
2022-10-28T18:03:50.506Z,100.00
2022-10-28T18:06:19.252Z,100.00
2022-10-28T18:11:22.408Z,100.00
2022-10-28T18:13:53.622Z,100.00
2022-10-28T18:16:24.304Z,100.00
2022-10-28T18:18:53.891Z,100.00
2022-10-28T18:21:22.341Z,100.00
2022-10-28T18:23:53.935Z,100.00
2022-10-28T18:26:22.524Z,100.00
2022-10-28T18:28:50.712Z,100.00
2022-10-28T18:31:20.872Z,100.00
2022-10-28T18:33:49.226Z,100.00
2022-10-28T18:36:19.183Z,100.00
2022-10-28T18:38:47.388Z,100.00
2022-10-28T18:41:18.584Z,100.00
2022-10-28T18:43:46.878Z,100.00
2022-10-28T18:46:15.600Z,100.00
2022-10-28T18:48:43.647Z,100.00
2022-10-28T18:51:14.479Z,100.00
2022-10-28T18:53:44.638Z,100.00
2022-10-28T18:56:14.697Z,100.00
2022-10-28T18:58:44.326Z,100.00
2022-10-28T19:01:14.527Z,100.00
2022-10-28T19:03:44.218Z,100.00
2022-10-28T19:06:13.733Z,100.00
2022-10-28T19:08:42.320Z,100.00
2022-10-28T19:11:12.487Z,100.00
2022-10-28T19:13:44.137Z,100.00
2022-10-28T19:18:41.029Z,100.00
2022-10-28T19:21:11.139Z,100.00
2022-10-28T19:23:39.679Z,100.00
2022-10-28T19:26:08.421Z,100.00
2022-10-28T19:28:40.035Z,100.00
2022-10-28T19:31:12.533Z,100.00
2022-10-28T19:33:40.783Z,100.00
2022-10-28T19:36:14.394Z,100.00
2022-10-28T19:38:42.105Z,100.00
2022-10-28T19:41:12.489Z,100.00
2022-10-28T19:43:40.520Z,100.00
2022-10-28T19:46:11.980Z,100.00
2022-10-28T19:48:40.632Z,100.00
2022-10-28T19:51:09.117Z,100.00
2022-10-28T19:53:36.796Z,100.00
2022-10-28T19:56:05.326Z,100.00
2022-10-28T19:58:33.331Z,100.00
2022-10-28T20:01:02.595Z,100.00
2022-10-28T20:03:34.532Z,100.00
2022-10-28T20:06:06.508Z,100.00
2022-10-28T20:08:36.434Z,100.00
2022-10-28T20:11:05.915Z,100.00
2022-10-28T20:13:34.235Z,100.00
2022-10-28T20:16:04.063Z,100.00
2022-10-28T20:18:34.110Z,100.00
2022-10-28T20:21:07.021Z,100.00
2022-10-28T20:23:36.119Z,100.00
2022-10-28T20:26:05.033Z,100.00
2022-10-28T20:28:33.087Z,100.00
2022-10-28T20:31:02.384Z,100.00
2022-10-28T20:33:31.266Z,100.00
2022-10-28T20:36:00.484Z,100.00
2022-10-28T20:38:29.083Z,100.00
2022-10-28T20:40:59.381Z,100.00
2022-10-28T20:43:29.207Z,100.00
2022-10-28T20:45:58.708Z,100.00
2022-10-28T20:48:27.446Z,100.00
2022-10-28T20:50:56.507Z,100.00
2022-10-28T20:53:27.029Z,100.00
2022-10-28T20:55:56.906Z,100.00
2022-10-28T20:58:26.202Z,100.00
2022-10-28T21:00:54.587Z,100.00
2022-10-28T21:03:23.056Z,100.00
2022-10-28T21:05:50.773Z,100.00
2022-10-28T21:08:18.527Z,100.00
2022-10-28T21:10:47.590Z,100.00
2022-10-28T21:13:15.270Z,100.00
2022-10-28T21:15:45.845Z,100.00
2022-10-28T21:18:13.943Z,100.00
2022-10-28T21:20:41.642Z,100.00
2022-10-28T21:23:09.325Z,100.00
2022-10-28T21:25:37.064Z,100.00
2022-10-28T21:28:06.515Z,100.00
2022-10-28T21:30:34.238Z,100.00
2022-10-28T21:33:03.542Z,100.00
2022-10-28T21:35:31.252Z,100.00
2022-10-28T21:37:59.085Z,100.00
2022-10-28T21:40:26.874Z,100.00
2022-10-28T21:42:54.557Z,100.00
2022-10-28T21:45:24.271Z,100.00
2022-10-28T21:47:55.431Z,100.00
2022-10-28T21:50:23.522Z,100.00
2022-10-28T21:52:51.281Z,100.00
2022-10-28T21:55:20.576Z,100.00
2022-10-28T21:57:54.974Z,100.00
2022-10-28T22:00:24.368Z,100.00
2022-10-28T22:02:52.218Z,100.00
2022-10-28T22:05:20.071Z,100.00
2022-10-28T22:07:47.744Z,100.00
2022-10-28T22:10:15.458Z,100.00
2022-10-28T22:12:43.143Z,100.00
2022-10-28T22:15:11.446Z,100.00
2022-10-28T22:17:40.921Z,100.00
2022-10-28T22:20:10.895Z,100.00
2022-10-28T22:22:38.781Z,100.00
2022-10-28T22:25:11.054Z,100.00
2022-10-28T22:27:38.797Z,100.00
2022-10-28T22:30:07.330Z,100.00
2022-10-28T22:32:35.156Z,100.00
2022-10-28T22:35:04.486Z,100.00
2022-10-28T22:37:32.191Z,100.00
2022-10-28T22:39:59.894Z,100.00
2022-10-28T22:42:27.560Z,100.00
2022-10-28T22:44:55.248Z,100.00
2022-10-28T22:47:22.956Z,100.00
2022-10-28T22:49:50.676Z,100.00
2022-10-28T22:52:19.700Z,100.00
2022-10-28T22:54:47.438Z,100.00
2022-10-28T22:57:15.178Z,100.00
2022-10-28T22:59:42.951Z,100.00
2022-10-28T23:02:10.787Z,100.00
2022-10-28T23:04:38.577Z,100.00
2022-10-28T23:07:06.256Z,100.00
2022-10-28T23:09:35.357Z,100.00
2022-10-28T23:12:03.094Z,100.00
2022-10-28T23:14:30.844Z,100.00
2022-10-28T23:16:58.520Z,100.00
2022-10-28T23:19:26.200Z,100.00
2022-10-28T23:21:53.897Z,100.00
2022-10-28T23:24:21.633Z,100.00
2022-10-28T23:26:50.730Z,100.00
2022-10-28T23:29:18.472Z,100.00
2022-10-28T23:31:46.184Z,100.00
2022-10-28T23:34:13.860Z,100.00
2022-10-28T23:36:41.554Z,100.00
2022-10-28T23:39:09.416Z,100.00
2022-10-28T23:41:37.109Z,100.00
2022-10-28T23:44:06.477Z,100.00
2022-10-28T23:46:37.381Z,100.00
2022-10-28T23:49:05.436Z,100.00
2022-10-28T23:51:33.228Z,100.00
2022-10-28T23:54:01.076Z,100.00
2022-10-28T23:56:28.756Z,100.00
2022-10-28T23:58:56.501Z,100.00
